createdAt,value
2022-08-26T00:04:43.102Z,88.93
2022-08-26T00:09:47.359Z,88.85
2022-08-26T00:14:50.536Z,89.03
2022-08-26T00:19:53.911Z,89.42
2022-08-26T00:24:56.934Z,89.97
2022-08-26T00:30:08.787Z,89.38
2022-08-26T00:35:13.631Z,89.10
2022-08-26T00:40:24.472Z,89.10
2022-08-26T00:45:33.560Z,89.01
2022-08-26T00:50:45.683Z,89.00
2022-08-26T00:56:22.596Z,89.02
2022-08-26T01:01:28.285Z,89.02
2022-08-26T01:06:33.785Z,89.15
2022-08-26T01:11:36.987Z,89.39
2022-08-26T01:16:40.566Z,89.17
2022-08-26T01:21:54.172Z,89.18
2022-08-26T01:27:05.461Z,89.47
2022-08-26T01:32:12.061Z,89.46
2022-08-26T01:37:23.912Z,89.32
2022-08-26T01:42:28.537Z,89.33
2022-08-26T01:47:35.185Z,89.34
2022-08-26T01:52:42.704Z,89.33
2022-08-26T01:57:51.350Z,89.33
2022-08-26T02:03:17.423Z,89.36
2022-08-26T02:08:46.003Z,89.29
2022-08-26T02:13:58.203Z,89.28
2022-08-26T02:19:04.912Z,89.32
2022-08-26T02:24:22.967Z,89.32
2022-08-26T02:29:41.464Z,89.43
2022-08-26T02:34:46.330Z,89.69
2022-08-26T02:39:49.546Z,89.99
2022-08-26T02:44:52.798Z,89.79
2022-08-26T02:49:55.816Z,90.12
2022-08-26T02:54:58.789Z,90.81
2022-08-26T03:00:03.100Z,91.03
2022-08-26T03:05:07.595Z,91.07
2022-08-26T03:10:12.717Z,90.56
2022-08-26T03:15:18.845Z,90.79
2022-08-26T03:20:22.136Z,90.97
2022-08-26T03:25:25.928Z,90.83
2022-08-26T03:30:45.285Z,90.47
2022-08-26T03:35:50.525Z,90.20
2022-08-26T03:40:53.927Z,90.17
2022-08-26T03:45:56.920Z,90.26
2022-08-26T03:51:02.193Z,91.30
2022-08-26T03:56:06.739Z,91.93
2022-08-26T04:01:12.422Z,91.68
2022-08-26T04:06:16.165Z,91.34
2022-08-26T04:11:22.979Z,91.04
2022-08-26T04:16:29.171Z,91.04
2022-08-26T04:21:32.151Z,91.76
2022-08-26T04:26:39.447Z,92.04
2022-08-26T04:31:50.447Z,92.19
2022-08-26T04:36:58.727Z,92.36
2022-08-26T04:42:02.092Z,92.21
2022-08-26T04:47:05.674Z,92.25
2022-08-26T04:52:08.692Z,92.50
2022-08-26T04:57:11.958Z,92.37
2022-08-26T05:02:15.076Z,92.26
2022-08-26T05:07:18.313Z,92.25
2022-08-26T05:12:21.262Z,92.29
2022-08-26T05:17:24.664Z,92.29
2022-08-26T05:22:27.638Z,92.13
2022-08-26T05:27:30.631Z,92.07
2022-08-26T05:32:33.575Z,91.90
2022-08-26T05:37:38.561Z,91.22
2022-08-26T05:42:42.820Z,89.78
2022-08-26T05:47:46.509Z,89.19
2022-08-26T05:52:50.994Z,89.57
2022-08-26T05:57:53.915Z,88.00
2022-08-26T06:02:58.585Z,86.94
2022-08-26T06:08:19.217Z,84.34
2022-08-26T06:13:27.192Z,85.72
2022-08-26T06:18:38.452Z,85.50
2022-08-26T06:24:01.218Z,82.86
2022-08-26T06:29:06.900Z,79.00
2022-08-26T06:34:11.793Z,76.74
2022-08-26T06:39:17.786Z,74.56
2022-08-26T06:44:20.969Z,74.19
2022-08-26T06:49:26.735Z,73.78
2022-08-26T06:54:31.902Z,73.71
2022-08-26T06:59:34.977Z,72.13
2022-08-26T07:04:37.932Z,69.75
2022-08-26T07:09:41.449Z,69.16
2022-08-26T07:14:47.412Z,68.51
2022-08-26T07:19:51.196Z,68.34
2022-08-26T07:24:55.631Z,64.40
2022-08-26T07:29:58.785Z,61.69
2022-08-26T07:35:01.740Z,62.58
2022-08-26T07:40:05.330Z,61.62
2022-08-26T07:45:08.570Z,60.51
2022-08-26T07:50:12.264Z,58.99
2022-08-26T07:55:15.401Z,59.10
2022-08-26T08:00:18.499Z,56.18
2022-08-26T08:05:23.068Z,58.59
2022-08-26T08:10:38.319Z,56.47
2022-08-26T08:15:42.400Z,56.66
2022-08-26T08:20:59.189Z,56.78
2022-08-26T08:26:11.061Z,57.30
2022-08-26T08:31:55.977Z,55.87
2022-08-26T08:36:50.502Z,55.35
2022-08-26T08:42:29.990Z,54.18
2022-08-26T08:47:39.642Z,52.88
2022-08-26T08:52:49.243Z,52.08
2022-08-26T08:58:13.489Z,50.49
2022-08-26T09:03:27.924Z,50.90
2022-08-26T09:08:36.406Z,50.94
2022-08-26T09:13:45.313Z,50.03
2022-08-26T09:19:02.302Z,49.60
2022-08-26T09:24:08.259Z,49.01
2022-08-26T09:29:40.836Z,48.60
2022-08-26T09:35:31.131Z,47.03
2022-08-26T09:40:36.695Z,46.40
2022-08-26T09:45:44.555Z,46.13
2022-08-26T09:50:59.411Z,44.83
2022-08-26T09:56:32.731Z,43.88
2022-08-26T10:01:44.893Z,41.67
2022-08-26T10:07:08.217Z,41.91
2022-08-26T10:12:17.674Z,43.22
2022-08-26T10:17:55.584Z,43.44
2022-08-26T10:23:20.468Z,42.90
2022-08-26T10:28:49.943Z,43.53
2022-08-26T10:33:58.685Z,44.06
2022-08-26T10:39:11.241Z,43.97
2022-08-26T10:44:18.622Z,44.36
2022-08-26T10:49:21.635Z,45.06
2022-08-26T10:54:34.480Z,45.88
2022-08-26T11:00:00.389Z,46.59
2022-08-26T11:05:19.811Z,45.83
2022-08-26T11:10:22.986Z,45.72
2022-08-26T11:15:28.189Z,47.13
2022-08-26T11:20:44.953Z,48.77
2022-08-26T11:26:11.014Z,49.57
2022-08-26T11:31:26.702Z,49.63
2022-08-26T11:36:38.753Z,48.56
2022-08-26T11:41:48.394Z,45.53
2022-08-26T11:47:00.756Z,44.16
2022-08-26T11:52:22.549Z,44.03
2022-08-26T11:57:27.241Z,42.05
2022-08-26T12:02:30.292Z,40.44
2022-08-26T12:07:33.425Z,40.46
2022-08-26T12:12:42.566Z,40.83
2022-08-26T12:17:52.923Z,39.26
2022-08-26T12:23:00.220Z,39.04
2022-08-26T12:28:06.275Z,39.12
2022-08-26T12:33:22.089Z,40.10
2022-08-26T12:38:28.203Z,39.49
2022-08-26T12:43:44.867Z,38.00
2022-08-26T12:48:50.191Z,40.43
2022-08-26T12:53:54.500Z,40.48
2022-08-26T12:59:24.052Z,40.65
2022-08-26T13:04:41.268Z,40.43
2022-08-26T13:09:44.499Z,41.56
2022-08-26T13:14:47.594Z,41.81
2022-08-26T13:19:50.625Z,41.38
2022-08-26T13:24:56.828Z,42.75
2022-08-26T13:30:00.486Z,42.01
2022-08-26T13:35:05.977Z,39.69
2022-08-26T13:40:10.282Z,37.90
2022-08-26T13:45:13.363Z,38.28
2022-08-26T13:50:16.574Z,39.87
2022-08-26T13:55:19.584Z,40.07
2022-08-26T14:00:23.194Z,41.44
2022-08-26T14:05:28.189Z,43.06
2022-08-26T14:10:31.302Z,44.37
2022-08-26T14:15:36.276Z,47.35
2022-08-26T14:20:39.980Z,49.25
2022-08-26T14:25:43.139Z,49.69
2022-08-26T14:30:54.368Z,50.63
2022-08-26T14:36:17.292Z,50.39
2022-08-26T14:41:21.724Z,49.72
2022-08-26T14:46:29.036Z,50.94
2022-08-26T14:51:33.224Z,51.18
2022-08-26T14:56:41.535Z,51.24
2022-08-26T15:01:45.758Z,50.96
2022-08-26T15:06:49.905Z,48.74
2022-08-26T15:11:53.417Z,46.59
2022-08-26T15:16:58.073Z,45.96
2022-08-26T15:22:01.136Z,45.12
2022-08-26T15:27:04.307Z,43.99
2022-08-26T15:32:07.631Z,43.88
2022-08-26T15:37:11.016Z,44.47
2022-08-26T15:42:14.156Z,45.22
2022-08-26T15:47:17.177Z,46.51
2022-08-26T15:52:21.356Z,45.44
2022-08-26T15:57:24.587Z,46.24
2022-08-26T16:02:32.332Z,46.08
2022-08-26T16:07:35.745Z,45.57
2022-08-26T16:12:38.853Z,46.05
2022-08-26T16:17:41.947Z,45.51
2022-08-26T16:22:45.075Z,48.01
2022-08-26T16:27:48.374Z,48.90
2022-08-26T16:32:51.330Z,50.03
2022-08-26T16:37:56.434Z,50.78
2022-08-26T16:42:59.562Z,51.04
2022-08-26T16:48:02.986Z,51.04
2022-08-26T16:53:06.280Z,51.53
2022-08-26T16:58:09.559Z,52.73
2022-08-26T17:03:12.831Z,54.01
2022-08-26T17:08:24.395Z,55.46
2022-08-26T17:13:35.767Z,56.33
2022-08-26T17:18:39.376Z,57.82
2022-08-26T17:23:43.766Z,57.72
2022-08-26T17:28:47.189Z,57.71
2022-08-26T17:33:53.682Z,57.90
2022-08-26T17:38:58.653Z,61.10
2022-08-26T17:44:01.641Z,62.50
2022-08-26T17:49:05.732Z,63.78
2022-08-26T17:54:09.382Z,64.25
2022-08-26T17:59:12.467Z,65.14
2022-08-26T18:04:16.169Z,66.07
2022-08-26T18:09:19.362Z,66.48
2022-08-26T18:14:22.376Z,65.61
2022-08-26T18:19:26.579Z,66.75
2022-08-26T18:24:32.246Z,67.37
2022-08-26T18:29:35.464Z,69.22
2022-08-26T18:34:41.634Z,71.11
2022-08-26T18:39:44.732Z,70.92
2022-08-26T18:44:51.399Z,71.44
2022-08-26T18:49:54.980Z,72.43
2022-08-26T18:54:58.203Z,72.30
2022-08-26T19:00:02.594Z,73.65
2022-08-26T19:05:07.051Z,73.97
2022-08-26T19:10:11.994Z,73.74
2022-08-26T19:15:14.955Z,73.17
2022-08-26T19:20:18.048Z,72.69
2022-08-26T19:25:21.041Z,72.39
2022-08-26T19:30:24.339Z,72.62
2022-08-26T19:35:32.632Z,72.74
2022-08-26T19:40:38.597Z,73.25
2022-08-26T19:45:41.678Z,73.79
2022-08-26T19:50:46.442Z,73.53
2022-08-26T19:55:49.355Z,74.67
2022-08-26T20:00:52.359Z,75.00
2022-08-26T20:05:55.296Z,75.79
2022-08-26T20:11:04.956Z,76.60
2022-08-26T20:16:10.420Z,76.17
2022-08-26T20:21:26.247Z,75.71
2022-08-26T20:26:33.325Z,75.49
2022-08-26T20:31:37.030Z,75.20
2022-08-26T20:36:41.924Z,75.00
2022-08-26T20:41:45.637Z,75.10
2022-08-26T20:46:50.029Z,75.39
2022-08-26T20:51:54.136Z,75.81
2022-08-26T20:56:58.724Z,76.14
2022-08-26T21:02:01.904Z,76.38
2022-08-26T21:07:05.024Z,76.83
2022-08-26T21:12:09.255Z,77.46
2022-08-26T21:17:12.807Z,77.64
2022-08-26T21:22:15.887Z,77.85
2022-08-26T21:27:26.143Z,78.00
2022-08-26T21:32:29.701Z,77.86
2022-08-26T21:37:32.921Z,78.06
2022-08-26T21:42:36.249Z,78.81
2022-08-26T21:47:39.767Z,79.04
2022-08-26T21:52:42.815Z,79.36
2022-08-26T21:57:45.842Z,79.71
2022-08-26T22:02:50.355Z,80.01
2022-08-26T22:07:53.841Z,80.72
2022-08-26T22:12:56.879Z,80.46
2022-08-26T22:17:59.872Z,80.54
2022-08-26T22:23:03.249Z,80.47
2022-08-26T22:28:07.693Z,81.06
2022-08-26T22:33:11.469Z,81.90
2022-08-26T22:38:15.078Z,82.28
2022-08-26T22:43:19.372Z,83.11
2022-08-26T22:48:25.857Z,83.00
2022-08-26T22:53:29.107Z,83.13
2022-08-26T22:58:36.301Z,83.25
2022-08-26T23:03:39.562Z,83.83
2022-08-26T23:08:45.386Z,83.84
2022-08-26T23:13:48.468Z,83.50
2022-08-26T23:18:51.610Z,83.16
2022-08-26T23:23:54.644Z,83.14
2022-08-26T23:28:58.125Z,83.22
2022-08-26T23:34:19.864Z,83.69
2022-08-26T23:39:25.590Z,84.51
2022-08-26T23:44:31.151Z,84.78
2022-08-26T23:49:35.147Z,85.06
2022-08-26T23:54:39.996Z,85.43
2022-08-26T23:59:43.451Z,85.54
